sensor_id;sensor_type;location;lat;lon;timestamp;P1;durP1;ratioP1;P2;durP2;ratioP2
24147;SDS011;12309;51.450;-2.624;2022-10-20T00:00:08;34.58;;;14.65;;
24147;SDS011;12309;51.450;-2.624;2022-10-20T00:02:34;37.47;;;15.23;;
24147;SDS011;12309;51.450;-2.624;2022-10-20T00:05:00;30.15;;;13.95;;
24147;SDS011;12309;51.450;-2.624;2022-10-20T00:07:26;34.83;;;15.45;;
24147;SDS011;12309;51.450;-2.624;2022-10-20T00:09:51;30.63;;;14.38;;
24147;SDS011;12309;51.450;-2.624;2022-10-20T00:12:17;34.60;;;14.50;;
24147;SDS011;12309;51.450;-2.624;2022-10-20T00:14:43;29.55;;;13.50;;
24147;SDS011;12309;51.450;-2.624;2022-10-20T00:17:09;46.80;;;15.90;;
24147;SDS011;12309;51.450;-2.624;2022-10-20T00:19:35;28.60;;;14.10;;
24147;SDS011;12309;51.450;-2.624;2022-10-20T00:22:01;31.02;;;15.32;;
24147;SDS011;12309;51.450;-2.624;2022-10-20T00:24:26;33.10;;;14.18;;
24147;SDS011;12309;51.450;-2.624;2022-10-20T00:26:52;33.47;;;14.70;;
24147;SDS011;12309;51.450;-2.624;2022-10-20T00:29:18;27.50;;;13.80;;
24147;SDS011;12309;51.450;-2.624;2022-10-20T00:31:44;29.38;;;14.15;;
24147;SDS011;12309;51.450;-2.624;2022-10-20T00:34:10;37.13;;;14.60;;
24147;SDS011;12309;51.450;-2.624;2022-10-20T00:36:37;37.08;;;15.07;;
24147;SDS011;12309;51.450;-2.624;2022-10-20T00:39:04;41.67;;;14.93;;
24147;SDS011;12309;51.450;-2.624;2022-10-20T00:41:30;31.13;;;14.90;;
24147;SDS011;12309;51.450;-2.624;2022-10-20T00:43:57;36.22;;;14.23;;
24147;SDS011;12309;51.450;-2.624;2022-10-20T00:46:29;30.27;;;13.75;;
24147;SDS011;12309;51.450;-2.624;2022-10-20T00:49:02;28.27;;;13.23;;
24147;SDS011;12309;51.450;-2.624;2022-10-20T00:51:35;26.55;;;13.60;;
24147;SDS011;12309;51.450;-2.624;2022-10-20T00:54:07;29.65;;;13.63;;
24147;SDS011;12309;51.450;-2.624;2022-10-20T00:56:33;30.63;;;14.18;;
24147;SDS011;12309;51.450;-2.624;2022-10-20T00:59:01;34.75;;;14.65;;
24147;SDS011;12309;51.450;-2.624;2022-10-20T01:01:28;31.35;;;14.43;;
24147;SDS011;12309;51.450;-2.624;2022-10-20T01:03:54;34.10;;;14.55;;
24147;SDS011;12309;51.450;-2.624;2022-10-20T01:06:20;29.63;;;13.18;;
24147;SDS011;12309;51.450;-2.624;2022-10-20T01:08:47;27.40;;;14.32;;
24147;SDS011;12309;51.450;-2.624;2022-10-20T01:21:37;31.92;;;12.65;;
24147;SDS011;12309;51.450;-2.624;2022-10-20T01:24:16;27.98;;;12.07;;
24147;SDS011;12309;51.450;-2.624;2022-10-20T01:29:55;32.75;;;12.10;;
24147;SDS011;12309;51.450;-2.624;2022-10-20T01:35:41;24.60;;;12.05;;
24147;SDS011;12309;51.450;-2.624;2022-10-20T01:41:01;38.22;;;12.93;;
24147;SDS011;12309;51.450;-2.624;2022-10-20T01:43:30;31.38;;;13.27;;
24147;SDS011;12309;51.450;-2.624;2022-10-20T01:45:59;32.45;;;11.70;;
24147;SDS011;12309;51.450;-2.624;2022-10-20T01:48:27;34.97;;;12.57;;
24147;SDS011;12309;51.450;-2.624;2022-10-20T01:50:53;29.20;;;11.45;;
24147;SDS011;12309;51.450;-2.624;2022-10-20T01:53:19;24.15;;;11.70;;
24147;SDS011;12309;51.450;-2.624;2022-10-20T01:55:48;30.48;;;12.18;;
24147;SDS011;12309;51.450;-2.624;2022-10-20T02:01:07;31.33;;;12.30;;
24147;SDS011;12309;51.450;-2.624;2022-10-20T02:03:51;31.10;;;12.73;;
24147;SDS011;12309;51.450;-2.624;2022-10-20T02:09:07;36.30;;;14.27;;
24147;SDS011;12309;51.450;-2.624;2022-10-20T02:14:06;27.52;;;12.57;;
24147;SDS011;12309;51.450;-2.624;2022-10-20T02:16:35;30.42;;;13.05;;
24147;SDS011;12309;51.450;-2.624;2022-10-20T02:19:13;29.05;;;12.57;;
24147;SDS011;12309;51.450;-2.624;2022-10-20T02:21:41;35.72;;;14.02;;
24147;SDS011;12309;51.450;-2.624;2022-10-20T02:24:08;27.58;;;13.63;;
24147;SDS011;12309;51.450;-2.624;2022-10-20T02:26:34;36.50;;;13.18;;
24147;SDS011;12309;51.450;-2.624;2022-10-20T02:29:03;40.05;;;14.05;;
24147;SDS011;12309;51.450;-2.624;2022-10-20T02:31:36;26.70;;;13.70;;
24147;SDS011;12309;51.450;-2.624;2022-10-20T02:34:02;32.83;;;13.63;;
24147;SDS011;12309;51.450;-2.624;2022-10-20T02:36:28;33.28;;;14.38;;
24147;SDS011;12309;51.450;-2.624;2022-10-20T02:38:54;42.00;;;14.88;;
24147;SDS011;12309;51.450;-2.624;2022-10-20T02:41:20;32.75;;;13.95;;
24147;SDS011;12309;51.450;-2.624;2022-10-20T02:43:46;31.63;;;13.98;;
24147;SDS011;12309;51.450;-2.624;2022-10-20T02:46:12;29.88;;;14.00;;
24147;SDS011;12309;51.450;-2.624;2022-10-20T02:48:38;35.42;;;14.13;;
24147;SDS011;12309;51.450;-2.624;2022-10-20T02:51:04;29.92;;;14.35;;
24147;SDS011;12309;51.450;-2.624;2022-10-20T02:53:31;35.42;;;14.25;;
24147;SDS011;12309;51.450;-2.624;2022-10-20T02:55:57;45.80;;;14.77;;
24147;SDS011;12309;51.450;-2.624;2022-10-20T02:58:23;44.75;;;14.88;;
24147;SDS011;12309;51.450;-2.624;2022-10-20T03:00:49;32.10;;;14.32;;
24147;SDS011;12309;51.450;-2.624;2022-10-20T03:03:15;34.05;;;14.32;;
24147;SDS011;12309;51.450;-2.624;2022-10-20T03:05:42;27.85;;;13.55;;
24147;SDS011;12309;51.450;-2.624;2022-10-20T03:08:09;34.25;;;14.68;;
24147;SDS011;12309;51.450;-2.624;2022-10-20T03:10:35;38.42;;;14.85;;
24147;SDS011;12309;51.450;-2.624;2022-10-20T03:13:02;43.10;;;14.82;;
24147;SDS011;12309;51.450;-2.624;2022-10-20T03:15:28;34.28;;;14.77;;
24147;SDS011;12309;51.450;-2.624;2022-10-20T03:17:54;35.42;;;14.65;;
24147;SDS011;12309;51.450;-2.624;2022-10-20T03:20:20;37.50;;;13.98;;
24147;SDS011;12309;51.450;-2.624;2022-10-20T03:22:46;41.05;;;14.30;;
24147;SDS011;12309;51.450;-2.624;2022-10-20T03:25:12;37.97;;;13.25;;
24147;SDS011;12309;51.450;-2.624;2022-10-20T03:27:37;35.28;;;14.18;;
24147;SDS011;12309;51.450;-2.624;2022-10-20T03:30:03;44.05;;;12.90;;
24147;SDS011;12309;51.450;-2.624;2022-10-20T03:32:29;42.05;;;12.80;;
24147;SDS011;12309;51.450;-2.624;2022-10-20T03:34:55;37.17;;;13.70;;
24147;SDS011;12309;51.450;-2.624;2022-10-20T03:37:21;31.50;;;12.93;;
24147;SDS011;12309;51.450;-2.624;2022-10-20T03:39:47;29.75;;;11.95;;
24147;SDS011;12309;51.450;-2.624;2022-10-20T03:42:13;35.85;;;11.77;;
24147;SDS011;12309;51.450;-2.624;2022-10-20T03:44:39;39.75;;;13.05;;
24147;SDS011;12309;51.450;-2.624;2022-10-20T03:47:05;30.73;;;11.30;;
24147;SDS011;12309;51.450;-2.624;2022-10-20T03:49:31;32.25;;;11.90;;
24147;SDS011;12309;51.450;-2.624;2022-10-20T03:51:58;32.08;;;10.95;;
24147;SDS011;12309;51.450;-2.624;2022-10-20T03:54:23;40.75;;;11.38;;
24147;SDS011;12309;51.450;-2.624;2022-10-20T03:56:49;35.80;;;10.95;;
24147;SDS011;12309;51.450;-2.624;2022-10-20T03:59:15;32.83;;;11.35;;
24147;SDS011;12309;51.450;-2.624;2022-10-20T04:01:42;36.50;;;10.88;;
24147;SDS011;12309;51.450;-2.624;2022-10-20T04:04:09;34.67;;;10.63;;
24147;SDS011;12309;51.450;-2.624;2022-10-20T04:06:35;31.02;;;10.98;;
24147;SDS011;12309;51.450;-2.624;2022-10-20T04:09:01;30.50;;;10.73;;
24147;SDS011;12309;51.450;-2.624;2022-10-20T04:11:28;38.22;;;10.20;;
24147;SDS011;12309;51.450;-2.624;2022-10-20T04:13:55;32.35;;;9.30;;
24147;SDS011;12309;51.450;-2.624;2022-10-20T04:16:21;29.42;;;8.40;;
24147;SDS011;12309;51.450;-2.624;2022-10-20T04:18:47;35.35;;;8.23;;
24147;SDS011;12309;51.450;-2.624;2022-10-20T04:21:13;39.22;;;8.77;;
24147;SDS011;12309;51.450;-2.624;2022-10-20T04:23:39;35.15;;;8.77;;
24147;SDS011;12309;51.450;-2.624;2022-10-20T04:26:12;33.85;;;7.95;;
24147;SDS011;12309;51.450;-2.624;2022-10-20T04:28:39;26.98;;;9.43;;
24147;SDS011;12309;51.450;-2.624;2022-10-20T04:31:05;30.80;;;9.73;;
24147;SDS011;12309;51.450;-2.624;2022-10-20T04:33:32;42.88;;;10.20;;
24147;SDS011;12309;51.450;-2.624;2022-10-20T04:35:58;35.22;;;9.93;;
24147;SDS011;12309;51.450;-2.624;2022-10-20T04:38:25;25.42;;;10.25;;
24147;SDS011;12309;51.450;-2.624;2022-10-20T04:40:58;37.25;;;11.07;;
24147;SDS011;12309;51.450;-2.624;2022-10-20T04:43:24;28.70;;;8.93;;
24147;SDS011;12309;51.450;-2.624;2022-10-20T04:45:51;37.20;;;10.57;;
24147;SDS011;12309;51.450;-2.624;2022-10-20T04:48:22;38.15;;;9.48;;
24147;SDS011;12309;51.450;-2.624;2022-10-20T04:50:58;38.97;;;11.18;;
24147;SDS011;12309;51.450;-2.624;2022-10-20T04:53:24;31.98;;;9.50;;
24147;SDS011;12309;51.450;-2.624;2022-10-20T04:55:54;30.58;;;9.88;;
24147;SDS011;12309;51.450;-2.624;2022-10-20T04:58:20;30.90;;;10.07;;
24147;SDS011;12309;51.450;-2.624;2022-10-20T05:00:47;39.70;;;9.85;;
24147;SDS011;12309;51.450;-2.624;2022-10-20T05:03:13;30.05;;;9.48;;
24147;SDS011;12309;51.450;-2.624;2022-10-20T05:05:39;31.52;;;10.18;;
24147;SDS011;12309;51.450;-2.624;2022-10-20T05:08:05;27.30;;;9.68;;
24147;SDS011;12309;51.450;-2.624;2022-10-20T05:10:31;30.60;;;9.65;;
24147;SDS011;12309;51.450;-2.624;2022-10-20T05:12:57;29.33;;;9.35;;
24147;SDS011;12309;51.450;-2.624;2022-10-20T05:15:22;43.72;;;10.73;;
24147;SDS011;12309;51.450;-2.624;2022-10-20T05:17:48;34.83;;;9.93;;
24147;SDS011;12309;51.450;-2.624;2022-10-20T05:20:14;33.75;;;9.52;;
24147;SDS011;12309;51.450;-2.624;2022-10-20T05:22:40;35.72;;;10.70;;
24147;SDS011;12309;51.450;-2.624;2022-10-20T05:25:06;34.78;;;9.35;;
24147;SDS011;12309;51.450;-2.624;2022-10-20T05:27:33;31.98;;;8.55;;
24147;SDS011;12309;51.450;-2.624;2022-10-20T05:29:59;32.38;;;8.63;;
24147;SDS011;12309;51.450;-2.624;2022-10-20T05:32:27;33.30;;;8.00;;
24147;SDS011;12309;51.450;-2.624;2022-10-20T05:34:53;26.23;;;8.68;;
24147;SDS011;12309;51.450;-2.624;2022-10-20T05:37:19;28.80;;;8.20;;
24147;SDS011;12309;51.450;-2.624;2022-10-20T05:39:45;31.05;;;7.93;;
24147;SDS011;12309;51.450;-2.624;2022-10-20T05:42:11;27.10;;;8.45;;
24147;SDS011;12309;51.450;-2.624;2022-10-20T05:44:37;39.30;;;8.23;;
24147;SDS011;12309;51.450;-2.624;2022-10-20T05:47:02;34.75;;;8.70;;
24147;SDS011;12309;51.450;-2.624;2022-10-20T05:49:28;32.67;;;7.28;;
24147;SDS011;12309;51.450;-2.624;2022-10-20T05:51:54;31.67;;;6.43;;
24147;SDS011;12309;51.450;-2.624;2022-10-20T05:54:20;28.58;;;6.38;;
24147;SDS011;12309;51.450;-2.624;2022-10-20T05:56:46;37.35;;;5.65;;
24147;SDS011;12309;51.450;-2.624;2022-10-20T05:59:12;29.45;;;5.88;;
24147;SDS011;12309;51.450;-2.624;2022-10-20T06:01:38;30.75;;;6.22;;
24147;SDS011;12309;51.450;-2.624;2022-10-20T06:04:18;25.80;;;5.88;;
24147;SDS011;12309;51.450;-2.624;2022-10-20T06:06:44;33.47;;;5.50;;
24147;SDS011;12309;51.450;-2.624;2022-10-20T06:09:12;37.30;;;6.03;;
24147;SDS011;12309;51.450;-2.624;2022-10-20T06:11:38;40.92;;;5.80;;
24147;SDS011;12309;51.450;-2.624;2022-10-20T06:14:04;25.45;;;5.55;;
24147;SDS011;12309;51.450;-2.624;2022-10-20T06:16:30;28.17;;;5.85;;
24147;SDS011;12309;51.450;-2.624;2022-10-20T06:18:56;31.02;;;5.32;;
24147;SDS011;12309;51.450;-2.624;2022-10-20T06:21:23;30.25;;;5.50;;
24147;SDS011;12309;51.450;-2.624;2022-10-20T06:23:50;32.90;;;5.63;;
24147;SDS011;12309;51.450;-2.624;2022-10-20T06:26:17;19.65;;;4.60;;
24147;SDS011;12309;51.450;-2.624;2022-10-20T06:28:49;34.72;;;4.72;;
24147;SDS011;12309;51.450;-2.624;2022-10-20T06:33:44;24.23;;;4.43;;
24147;SDS011;12309;51.450;-2.624;2022-10-20T06:36:11;33.20;;;5.93;;
24147;SDS011;12309;51.450;-2.624;2022-10-20T06:38:37;31.13;;;5.78;;
24147;SDS011;12309;51.450;-2.624;2022-10-20T06:41:04;25.75;;;5.25;;
24147;SDS011;12309;51.450;-2.624;2022-10-20T06:43:32;27.67;;;5.95;;
24147;SDS011;12309;51.450;-2.624;2022-10-20T06:46:09;30.58;;;5.88;;
24147;SDS011;12309;51.450;-2.624;2022-10-20T06:48:36;30.98;;;7.47;;
24147;SDS011;12309;51.450;-2.624;2022-10-20T06:51:03;27.73;;;5.03;;
24147;SDS011;12309;51.450;-2.624;2022-10-20T06:53:31;32.53;;;5.13;;
24147;SDS011;12309;51.450;-2.624;2022-10-20T06:55:59;32.72;;;8.35;;
24147;SDS011;12309;51.450;-2.624;2022-10-20T06:58:27;39.38;;;8.63;;
24147;SDS011;12309;51.450;-2.624;2022-10-20T07:00:56;34.95;;;5.95;;
24147;SDS011;12309;51.450;-2.624;2022-10-20T07:03:23;24.20;;;4.07;;
24147;SDS011;12309;51.450;-2.624;2022-10-20T07:05:49;24.40;;;4.25;;
24147;SDS011;12309;51.450;-2.624;2022-10-20T07:08:15;28.67;;;5.38;;
24147;SDS011;12309;51.450;-2.624;2022-10-20T07:10:41;29.25;;;4.95;;
24147;SDS011;12309;51.450;-2.624;2022-10-20T07:13:07;21.58;;;4.20;;
24147;SDS011;12309;51.450;-2.624;2022-10-20T07:15:33;21.38;;;4.38;;
24147;SDS011;12309;51.450;-2.624;2022-10-20T07:17:59;26.98;;;4.72;;
24147;SDS011;12309;51.450;-2.624;2022-10-20T07:20:25;23.20;;;4.65;;
24147;SDS011;12309;51.450;-2.624;2022-10-20T07:22:50;27.40;;;4.60;;
24147;SDS011;12309;51.450;-2.624;2022-10-20T07:25:16;19.13;;;3.25;;
24147;SDS011;12309;51.450;-2.624;2022-10-20T07:27:45;18.25;;;3.60;;
24147;SDS011;12309;51.450;-2.624;2022-10-20T07:30:11;24.35;;;4.05;;
24147;SDS011;12309;51.450;-2.624;2022-10-20T07:32:37;22.15;;;3.42;;
24147;SDS011;12309;51.450;-2.624;2022-10-20T07:35:04;20.85;;;3.78;;
24147;SDS011;12309;51.450;-2.624;2022-10-20T07:37:29;24.50;;;3.83;;
24147;SDS011;12309;51.450;-2.624;2022-10-20T07:39:55;25.63;;;3.97;;
24147;SDS011;12309;51.450;-2.624;2022-10-20T07:42:21;30.55;;;4.18;;
24147;SDS011;12309;51.450;-2.624;2022-10-20T07:44:47;21.20;;;3.92;;
24147;SDS011;12309;51.450;-2.624;2022-10-20T07:47:13;20.15;;;4.03;;
24147;SDS011;12309;51.450;-2.624;2022-10-20T07:49:39;18.52;;;3.35;;
24147;SDS011;12309;51.450;-2.624;2022-10-20T07:52:05;21.50;;;3.50;;
24147;SDS011;12309;51.450;-2.624;2022-10-20T07:54:30;15.30;;;3.88;;
24147;SDS011;12309;51.450;-2.624;2022-10-20T07:56:56;20.13;;;4.03;;
24147;SDS011;12309;51.450;-2.624;2022-10-20T07:59:22;24.50;;;4.20;;
24147;SDS011;12309;51.450;-2.624;2022-10-20T08:01:48;19.08;;;4.00;;
24147;SDS011;12309;51.450;-2.624;2022-10-20T08:04:14;22.95;;;4.20;;
24147;SDS011;12309;51.450;-2.624;2022-10-20T08:06:40;23.90;;;4.50;;
24147;SDS011;12309;51.450;-2.624;2022-10-20T08:09:05;19.90;;;4.10;;
24147;SDS011;12309;51.450;-2.624;2022-10-20T08:11:31;27.35;;;4.82;;
24147;SDS011;12309;51.450;-2.624;2022-10-20T08:13:57;22.25;;;4.13;;
24147;SDS011;12309;51.450;-2.624;2022-10-20T08:16:23;20.05;;;4.35;;
24147;SDS011;12309;51.450;-2.624;2022-10-20T08:18:50;19.15;;;4.22;;
24147;SDS011;12309;51.450;-2.624;2022-10-20T08:21:17;25.05;;;4.18;;
24147;SDS011;12309;51.450;-2.624;2022-10-20T08:23:45;30.63;;;4.55;;
24147;SDS011;12309;51.450;-2.624;2022-10-20T08:26:15;23.63;;;4.40;;
24147;SDS011;12309;51.450;-2.624;2022-10-20T08:28:41;15.00;;;3.70;;
24147;SDS011;12309;51.450;-2.624;2022-10-20T08:31:07;20.88;;;4.13;;
24147;SDS011;12309;51.450;-2.624;2022-10-20T08:33:33;19.45;;;4.40;;
24147;SDS011;12309;51.450;-2.624;2022-10-20T08:36:04;17.10;;;3.58;;
24147;SDS011;12309;51.450;-2.624;2022-10-20T08:38:32;17.92;;;3.58;;
24147;SDS011;12309;51.450;-2.624;2022-10-20T08:40:58;17.17;;;3.78;;
24147;SDS011;12309;51.450;-2.624;2022-10-20T08:43:24;19.33;;;5.15;;
24147;SDS011;12309;51.450;-2.624;2022-10-20T08:45:51;17.00;;;3.67;;
24147;SDS011;12309;51.450;-2.624;2022-10-20T08:48:19;27.85;;;4.45;;
24147;SDS011;12309;51.450;-2.624;2022-10-20T08:50:50;24.88;;;3.83;;
24147;SDS011;12309;51.450;-2.624;2022-10-20T08:53:20;15.82;;;3.58;;
24147;SDS011;12309;51.450;-2.624;2022-10-20T08:55:48;18.90;;;3.72;;
24147;SDS011;12309;51.450;-2.624;2022-10-20T08:58:15;19.65;;;3.58;;
24147;SDS011;12309;51.450;-2.624;2022-10-20T09:00:44;19.83;;;3.42;;
24147;SDS011;12309;51.450;-2.624;2022-10-20T09:03:15;14.68;;;3.45;;
24147;SDS011;12309;51.450;-2.624;2022-10-20T09:08:31;21.70;;;3.78;;
24147;SDS011;12309;51.450;-2.624;2022-10-20T09:11:01;13.30;;;2.92;;
24147;SDS011;12309;51.450;-2.624;2022-10-20T09:13:30;21.08;;;3.83;;
24147;SDS011;12309;51.450;-2.624;2022-10-20T09:16:03;18.58;;;2.85;;
24147;SDS011;12309;51.450;-2.624;2022-10-20T09:18:37;13.05;;;2.80;;
24147;SDS011;12309;51.450;-2.624;2022-10-20T09:21:21;16.42;;;3.28;;
24147;SDS011;12309;51.450;-2.624;2022-10-20T09:23:48;21.33;;;3.90;;
24147;SDS011;12309;51.450;-2.624;2022-10-20T09:26:32;15.13;;;3.70;;
24147;SDS011;12309;51.450;-2.624;2022-10-20T09:29:07;15.43;;;3.72;;
24147;SDS011;12309;51.450;-2.624;2022-10-20T09:31:39;12.05;;;2.90;;
24147;SDS011;12309;51.450;-2.624;2022-10-20T09:36:56;12.15;;;2.40;;
24147;SDS011;12309;51.450;-2.624;2022-10-20T09:39:32;16.17;;;2.47;;
24147;SDS011;12309;51.450;-2.624;2022-10-20T09:42:06;9.30;;;2.30;;
24147;SDS011;12309;51.450;-2.624;2022-10-20T09:44:47;17.42;;;2.85;;
24147;SDS011;12309;51.450;-2.624;2022-10-20T09:47:13;19.05;;;3.60;;
24147;SDS011;12309;51.450;-2.624;2022-10-20T09:49:41;10.25;;;3.25;;
24147;SDS011;12309;51.450;-2.624;2022-10-20T09:52:16;17.20;;;3.80;;
24147;SDS011;12309;51.450;-2.624;2022-10-20T09:54:49;12.25;;;3.20;;
24147;SDS011;12309;51.450;-2.624;2022-10-20T09:57:17;14.25;;;3.10;;
24147;SDS011;12309;51.450;-2.624;2022-10-20T09:59:45;13.18;;;2.67;;
24147;SDS011;12309;51.450;-2.624;2022-10-20T10:04:39;12.43;;;2.60;;
24147;SDS011;12309;51.450;-2.624;2022-10-20T10:07:27;12.43;;;2.65;;
24147;SDS011;12309;51.450;-2.624;2022-10-20T10:12:25;11.77;;;2.17;;
24147;SDS011;12309;51.450;-2.624;2022-10-20T10:14:54;11.73;;;2.88;;
24147;SDS011;12309;51.450;-2.624;2022-10-20T10:20:02;8.73;;;1.98;;
24147;SDS011;12309;51.450;-2.624;2022-10-20T10:22:29;11.60;;;1.95;;
24147;SDS011;12309;51.450;-2.624;2022-10-20T10:24:55;11.98;;;2.25;;
24147;SDS011;12309;51.450;-2.624;2022-10-20T10:27:27;14.43;;;2.40;;
24147;SDS011;12309;51.450;-2.624;2022-10-20T10:29:54;11.48;;;2.20;;
24147;SDS011;12309;51.450;-2.624;2022-10-20T10:32:44;10.80;;;1.70;;
24147;SDS011;12309;51.450;-2.624;2022-10-20T10:37:57;9.38;;;1.80;;
24147;SDS011;12309;51.450;-2.624;2022-10-20T10:51:14;15.73;;;2.03;;
24147;SDS011;12309;51.450;-2.624;2022-10-20T10:56:32;12.75;;;2.05;;
24147;SDS011;12309;51.450;-2.624;2022-10-20T10:59:34;7.03;;;1.30;;
24147;SDS011;12309;51.450;-2.624;2022-10-20T11:04:53;10.85;;;1.63;;
24147;SDS011;12309;51.450;-2.624;2022-10-20T11:07:51;14.07;;;1.58;;
24147;SDS011;12309;51.450;-2.624;2022-10-20T11:13:29;15.73;;;2.20;;
24147;SDS011;12309;51.450;-2.624;2022-10-20T11:22:03;15.35;;;2.50;;
24147;SDS011;12309;51.450;-2.624;2022-10-20T11:26:40;11.50;;;2.20;;
24147;SDS011;12309;51.450;-2.624;2022-10-20T11:29:12;14.38;;;1.80;;
24147;SDS011;12309;51.450;-2.624;2022-10-20T11:31:53;10.65;;;1.58;;
24147;SDS011;12309;51.450;-2.624;2022-10-20T11:34:32;14.43;;;1.75;;
24147;SDS011;12309;51.450;-2.624;2022-10-20T11:39:47;19.55;;;2.83;;
24147;SDS011;12309;51.450;-2.624;2022-10-20T11:42:49;10.43;;;1.98;;
24147;SDS011;12309;51.450;-2.624;2022-10-20T11:49:02;13.07;;;1.65;;
24147;SDS011;12309;51.450;-2.624;2022-10-20T12:01:53;9.20;;;1.75;;
24147;SDS011;12309;51.450;-2.624;2022-10-20T12:04:27;9.95;;;2.03;;
24147;SDS011;12309;51.450;-2.624;2022-10-20T12:10:24;9.77;;;1.83;;
24147;SDS011;12309;51.450;-2.624;2022-10-20T12:15:50;15.40;;;2.50;;
24147;SDS011;12309;51.450;-2.624;2022-10-20T12:20:54;8.70;;;1.77;;
24147;SDS011;12309;51.450;-2.624;2022-10-20T12:29:00;12.70;;;1.85;;
24147;SDS011;12309;51.450;-2.624;2022-10-20T12:34:51;12.90;;;2.03;;
24147;SDS011;12309;51.450;-2.624;2022-10-20T12:37:28;11.48;;;1.92;;
24147;SDS011;12309;51.450;-2.624;2022-10-20T12:40:39;14.85;;;2.15;;
24147;SDS011;12309;51.450;-2.624;2022-10-20T12:42:46;8.60;;;1.83;;
24147;SDS011;12309;51.450;-2.624;2022-10-20T12:48:02;6.85;;;1.70;;
24147;SDS011;12309;51.450;-2.624;2022-10-20T12:50:50;7.75;;;1.52;;
24147;SDS011;12309;51.450;-2.624;2022-10-20T12:55:41;8.40;;;1.45;;
24147;SDS011;12309;51.450;-2.624;2022-10-20T13:05:56;8.90;;;1.83;;
24147;SDS011;12309;51.450;-2.624;2022-10-20T13:10:49;8.88;;;1.63;;
24147;SDS011;12309;51.450;-2.624;2022-10-20T13:25:56;6.72;;;1.90;;
24147;SDS011;12309;51.450;-2.624;2022-10-20T13:28:25;7.47;;;1.75;;
24147;SDS011;12309;51.450;-2.624;2022-10-20T13:36:04;4.60;;;1.38;;
24147;SDS011;12309;51.450;-2.624;2022-10-20T13:38:41;6.15;;;1.00;;
24147;SDS011;12309;51.450;-2.624;2022-10-20T13:46:38;7.95;;;1.55;;
24147;SDS011;12309;51.450;-2.624;2022-10-20T13:51:46;9.48;;;1.58;;
24147;SDS011;12309;51.450;-2.624;2022-10-20T13:54:17;14.10;;;1.80;;
24147;SDS011;12309;51.450;-2.624;2022-10-20T13:56:52;7.40;;;1.20;;
24147;SDS011;12309;51.450;-2.624;2022-10-20T14:01:50;11.77;;;1.70;;
24147;SDS011;12309;51.450;-2.624;2022-10-20T14:04:26;7.93;;;1.60;;
24147;SDS011;12309;51.450;-2.624;2022-10-20T14:06:54;9.27;;;2.10;;
24147;SDS011;12309;51.450;-2.624;2022-10-20T14:09:23;6.75;;;2.05;;
24147;SDS011;12309;51.450;-2.624;2022-10-20T14:12:00;11.60;;;1.92;;
24147;SDS011;12309;51.450;-2.624;2022-10-20T14:14:29;13.88;;;3.08;;
24147;SDS011;12309;51.450;-2.624;2022-10-20T14:17:05;17.20;;;3.13;;
24147;SDS011;12309;51.450;-2.624;2022-10-20T14:19:32;14.00;;;2.70;;
24147;SDS011;12309;51.450;-2.624;2022-10-20T14:22:08;17.00;;;2.40;;
24147;SDS011;12309;51.450;-2.624;2022-10-20T14:24:35;16.60;;;2.53;;
24147;SDS011;12309;51.450;-2.624;2022-10-20T14:27:05;14.25;;;3.10;;
24147;SDS011;12309;51.450;-2.624;2022-10-20T14:29:43;10.98;;;2.58;;
24147;SDS011;12309;51.450;-2.624;2022-10-20T14:32:28;10.27;;;2.67;;
24147;SDS011;12309;51.450;-2.624;2022-10-20T14:37:28;15.10;;;2.33;;
24147;SDS011;12309;51.450;-2.624;2022-10-20T14:39:58;11.40;;;1.80;;
24147;SDS011;12309;51.450;-2.624;2022-10-20T14:42:24;6.53;;;1.55;;
24147;SDS011;12309;51.450;-2.624;2022-10-20T14:44:54;6.35;;;1.45;;
24147;SDS011;12309;51.450;-2.624;2022-10-20T14:47:23;9.85;;;1.50;;
24147;SDS011;12309;51.450;-2.624;2022-10-20T14:49:51;14.45;;;1.77;;
24147;SDS011;12309;51.450;-2.624;2022-10-20T14:52:20;9.60;;;1.58;;
24147;SDS011;12309;51.450;-2.624;2022-10-20T14:54:49;8.90;;;1.60;;
24147;SDS011;12309;51.450;-2.624;2022-10-20T15:00:29;6.38;;;1.25;;
24147;SDS011;12309;51.450;-2.624;2022-10-20T15:02:46;8.65;;;2.13;;
24147;SDS011;12309;51.450;-2.624;2022-10-20T15:08:45;6.32;;;1.23;;
24147;SDS011;12309;51.450;-2.624;2022-10-20T15:10:53;11.38;;;1.70;;
24147;SDS011;12309;51.450;-2.624;2022-10-20T15:13:29;4.80;;;1.42;;
24147;SDS011;12309;51.450;-2.624;2022-10-20T15:15:58;6.05;;;1.25;;
24147;SDS011;12309;51.450;-2.624;2022-10-20T15:18:24;4.97;;;1.58;;
24147;SDS011;12309;51.450;-2.624;2022-10-20T15:20:51;6.43;;;1.65;;
24147;SDS011;12309;51.450;-2.624;2022-10-20T15:23:21;4.72;;;1.33;;
24147;SDS011;12309;51.450;-2.624;2022-10-20T15:30:45;9.13;;;1.98;;
24147;SDS011;12309;51.450;-2.624;2022-10-20T15:33:12;6.35;;;1.38;;
24147;SDS011;12309;51.450;-2.624;2022-10-20T15:35:37;7.25;;;1.80;;
24147;SDS011;12309;51.450;-2.624;2022-10-20T15:38:08;8.55;;;1.50;;
24147;SDS011;12309;51.450;-2.624;2022-10-20T15:40:35;8.02;;;1.70;;
24147;SDS011;12309;51.450;-2.624;2022-10-20T15:43:01;7.53;;;1.65;;
24147;SDS011;12309;51.450;-2.624;2022-10-20T15:45:27;9.50;;;1.85;;
24147;SDS011;12309;51.450;-2.624;2022-10-20T15:47:58;6.18;;;1.40;;
24147;SDS011;12309;51.450;-2.624;2022-10-20T15:50:25;9.02;;;1.50;;
24147;SDS011;12309;51.450;-2.624;2022-10-20T15:52:50;5.03;;;1.23;;
24147;SDS011;12309;51.450;-2.624;2022-10-20T15:55:24;7.03;;;1.50;;
24147;SDS011;12309;51.450;-2.624;2022-10-20T15:57:58;7.35;;;1.98;;
24147;SDS011;12309;51.450;-2.624;2022-10-20T16:00:24;8.95;;;1.85;;
24147;SDS011;12309;51.450;-2.624;2022-10-20T16:02:51;8.55;;;1.83;;
24147;SDS011;12309;51.450;-2.624;2022-10-20T16:05:18;8.32;;;2.03;;
24147;SDS011;12309;51.450;-2.624;2022-10-20T16:07:47;7.75;;;1.67;;
24147;SDS011;12309;51.450;-2.624;2022-10-20T16:10:14;12.65;;;1.90;;
24147;SDS011;12309;51.450;-2.624;2022-10-20T16:12:40;8.20;;;1.70;;
24147;SDS011;12309;51.450;-2.624;2022-10-20T16:15:07;9.40;;;1.80;;
24147;SDS011;12309;51.450;-2.624;2022-10-20T16:17:33;7.85;;;1.67;;
24147;SDS011;12309;51.450;-2.624;2022-10-20T16:19:59;11.00;;;1.95;;
24147;SDS011;12309;51.450;-2.624;2022-10-20T16:22:25;7.10;;;1.48;;
24147;SDS011;12309;51.450;-2.624;2022-10-20T16:24:52;10.98;;;2.10;;
24147;SDS011;12309;51.450;-2.624;2022-10-20T16:27:19;12.70;;;2.00;;
24147;SDS011;12309;51.450;-2.624;2022-10-20T16:29:45;8.20;;;1.42;;
24147;SDS011;12309;51.450;-2.624;2022-10-20T16:32:11;11.27;;;2.53;;
24147;SDS011;12309;51.450;-2.624;2022-10-20T16:34:37;13.05;;;2.22;;
24147;SDS011;12309;51.450;-2.624;2022-10-20T16:37:03;8.02;;;1.52;;
24147;SDS011;12309;51.450;-2.624;2022-10-20T16:39:29;7.15;;;1.73;;
24147;SDS011;12309;51.450;-2.624;2022-10-20T16:41:55;11.75;;;2.00;;
24147;SDS011;12309;51.450;-2.624;2022-10-20T16:44:21;18.88;;;2.53;;
24147;SDS011;12309;51.450;-2.624;2022-10-20T16:46:46;12.30;;;2.53;;
24147;SDS011;12309;51.450;-2.624;2022-10-20T16:49:12;9.57;;;2.17;;
24147;SDS011;12309;51.450;-2.624;2022-10-20T16:51:38;10.18;;;2.63;;
24147;SDS011;12309;51.450;-2.624;2022-10-20T16:54:04;10.82;;;2.30;;
24147;SDS011;12309;51.450;-2.624;2022-10-20T16:56:30;12.80;;;2.60;;
24147;SDS011;12309;51.450;-2.624;2022-10-20T16:58:56;13.07;;;3.20;;
24147;SDS011;12309;51.450;-2.624;2022-10-20T17:01:22;12.68;;;2.47;;
24147;SDS011;12309;51.450;-2.624;2022-10-20T17:03:49;10.98;;;2.17;;
24147;SDS011;12309;51.450;-2.624;2022-10-20T17:06:17;10.50;;;2.28;;
24147;SDS011;12309;51.450;-2.624;2022-10-20T17:08:45;7.85;;;1.40;;
24147;SDS011;12309;51.450;-2.624;2022-10-20T17:11:12;10.57;;;1.80;;
24147;SDS011;12309;51.450;-2.624;2022-10-20T17:13:42;8.25;;;2.42;;